createdAt,value
2022-09-15T00:00:12.971Z,14.23
2022-09-15T00:01:12.964Z,14.23
2022-09-15T00:02:13.091Z,14.23
2022-09-15T00:03:13.054Z,14.21
2022-09-15T00:04:12.961Z,14.21
2022-09-15T00:05:12.922Z,14.20
2022-09-15T00:06:12.897Z,14.19
2022-09-15T00:07:12.902Z,14.20
2022-09-15T00:08:12.874Z,14.21
2022-09-15T00:09:12.846Z,14.21
2022-09-15T00:10:12.866Z,14.20
2022-09-15T00:11:12.827Z,14.21
2022-09-15T00:12:12.831Z,14.21
2022-09-15T00:13:12.827Z,14.20
2022-09-15T00:14:12.795Z,14.20
2022-09-15T00:15:12.789Z,14.20
2022-09-15T00:16:15.180Z,14.20
2022-09-15T00:17:12.788Z,14.21
2022-09-15T00:18:12.754Z,14.19
2022-09-15T00:19:12.717Z,14.21
2022-09-15T00:20:12.711Z,14.21
2022-09-15T00:21:12.694Z,14.23
2022-09-15T00:22:12.693Z,14.21
2022-09-15T00:23:12.673Z,14.21
2022-09-15T00:24:12.687Z,14.20
2022-09-15T00:25:12.645Z,14.16
2022-09-15T00:26:12.625Z,14.13
2022-09-15T00:27:12.630Z,14.12
2022-09-15T00:28:12.611Z,14.09
2022-09-15T00:29:12.617Z,14.11
2022-09-15T00:30:12.589Z,14.11
2022-09-15T00:31:12.652Z,14.11
2022-09-15T00:32:12.580Z,14.08
2022-09-15T00:33:12.588Z,14.08
2022-09-15T00:34:12.560Z,14.06
2022-09-15T00:35:12.514Z,14.05
2022-09-15T00:36:12.543Z,14.02
2022-09-15T00:37:12.537Z,14.02
2022-09-15T00:38:12.484Z,13.99
2022-09-15T00:39:12.463Z,14.01
2022-09-15T00:40:12.537Z,13.99
2022-09-15T00:41:12.535Z,13.99
2022-09-15T00:42:12.443Z,13.98
2022-09-15T00:43:12.403Z,13.96
2022-09-15T00:44:12.416Z,13.96
2022-09-15T00:45:12.395Z,13.94
2022-09-15T00:46:12.486Z,13.93
2022-09-15T00:47:20.155Z,13.94
2022-09-15T00:48:13.362Z,13.93
2022-09-15T00:49:12.374Z,13.93
2022-09-15T00:50:12.461Z,13.91
2022-09-15T00:51:12.333Z,13.93
2022-09-15T00:52:12.713Z,13.91
2022-09-15T00:53:12.284Z,13.91
2022-09-15T00:54:12.271Z,13.91
2022-09-15T00:55:12.263Z,13.91
2022-09-15T00:56:12.248Z,13.91
2022-09-15T00:57:12.234Z,13.88
2022-09-15T00:58:12.252Z,13.88
2022-09-15T00:59:12.212Z,13.87
2022-09-15T01:00:12.201Z,13.87
2022-09-15T01:01:12.217Z,13.87
2022-09-15T01:02:12.262Z,13.86
2022-09-15T01:03:12.173Z,13.84
2022-09-15T01:04:12.147Z,13.83
2022-09-15T01:05:12.130Z,13.81
2022-09-15T01:06:12.119Z,13.80
2022-09-15T01:07:12.110Z,13.79
2022-09-15T01:08:12.095Z,13.76
2022-09-15T01:09:12.093Z,13.75
2022-09-15T01:10:12.078Z,13.73
2022-09-15T01:11:12.069Z,13.72
2022-09-15T01:12:12.108Z,13.69
2022-09-15T01:13:12.090Z,13.69
2022-09-15T01:14:12.048Z,13.68
2022-09-15T01:15:12.036Z,13.66
2022-09-15T01:16:12.041Z,13.63
2022-09-15T01:17:12.055Z,13.61
2022-09-15T01:18:12.073Z,13.61
2022-09-15T01:19:11.967Z,13.62
2022-09-15T01:20:11.947Z,13.61
2022-09-15T01:21:11.914Z,13.61
2022-09-15T01:22:11.905Z,13.57
2022-09-15T01:23:12.936Z,13.61
2022-09-15T01:24:11.884Z,13.61
2022-09-15T01:25:11.867Z,13.61
2022-09-15T01:26:11.858Z,13.61
2022-09-15T01:27:37.822Z,13.61
2022-09-15T01:28:12.847Z,13.59
2022-09-15T01:29:12.126Z,13.59
2022-09-15T01:30:11.830Z,13.59
2022-09-15T01:31:11.873Z,13.59
2022-09-15T01:32:11.871Z,13.57
2022-09-15T01:33:11.777Z,13.57
2022-09-15T01:34:11.772Z,13.55
2022-09-15T01:35:11.755Z,13.54
2022-09-15T01:36:11.750Z,13.59
2022-09-15T01:37:11.716Z,13.55
2022-09-15T01:38:11.705Z,13.54
2022-09-15T01:39:11.693Z,13.55
2022-09-15T01:40:11.765Z,13.54
2022-09-15T01:41:11.655Z,13.54
2022-09-15T01:42:11.643Z,13.54
2022-09-15T01:43:11.658Z,13.54
2022-09-15T01:44:11.628Z,13.53
2022-09-15T01:45:11.656Z,13.53
2022-09-15T01:46:11.738Z,13.53
2022-09-15T01:47:11.593Z,13.51
2022-09-15T01:48:11.599Z,13.51
2022-09-15T01:49:11.596Z,13.53
2022-09-15T01:50:11.571Z,13.50
2022-09-15T01:51:11.554Z,13.51
2022-09-15T01:52:11.520Z,13.53
2022-09-15T01:53:11.507Z,13.53
2022-09-15T01:54:11.486Z,13.53
2022-09-15T01:55:11.496Z,13.53
2022-09-15T01:56:11.715Z,13.54
2022-09-15T01:57:11.509Z,13.55
2022-09-15T01:58:11.463Z,13.54
2022-09-15T01:59:11.421Z,13.54
2022-09-15T02:00:11.420Z,13.55
2022-09-15T02:01:11.460Z,13.55
2022-09-15T02:02:12.353Z,13.55
2022-09-15T02:03:11.380Z,13.57
2022-09-15T02:04:11.363Z,13.59
2022-09-15T02:05:11.356Z,13.61
2022-09-15T02:06:11.340Z,13.59
2022-09-15T02:07:11.361Z,13.61
2022-09-15T02:08:11.335Z,13.61
2022-09-15T02:09:11.290Z,13.62
2022-09-15T02:10:11.291Z,13.61
2022-09-15T02:11:11.269Z,13.61
2022-09-15T02:12:11.278Z,13.61
2022-09-15T02:13:11.260Z,13.62
2022-09-15T02:14:11.237Z,13.61
2022-09-15T02:15:11.232Z,13.61
2022-09-15T02:16:11.221Z,13.61
2022-09-15T02:17:11.197Z,13.62
2022-09-15T02:18:11.187Z,13.61
2022-09-15T02:19:11.175Z,13.61
2022-09-15T02:20:11.160Z,13.59
2022-09-15T02:21:11.148Z,13.59
2022-09-15T02:22:11.147Z,13.61
2022-09-15T02:23:11.146Z,13.61
2022-09-15T02:24:11.112Z,13.59
2022-09-15T02:25:11.107Z,13.62
2022-09-15T02:26:11.089Z,13.61
2022-09-15T02:27:11.087Z,13.61
2022-09-15T02:28:11.056Z,13.62
2022-09-15T02:29:11.028Z,13.63
2022-09-15T02:30:11.024Z,13.63
2022-09-15T02:31:11.100Z,13.63
2022-09-15T02:32:11.072Z,13.63
2022-09-15T02:33:10.984Z,13.62
2022-09-15T02:34:10.976Z,13.65
2022-09-15T02:35:10.979Z,13.66
2022-09-15T02:36:10.960Z,13.65
2022-09-15T02:37:10.956Z,13.63
2022-09-15T02:38:10.963Z,13.62
2022-09-15T02:39:10.929Z,13.59
2022-09-15T02:40:11.019Z,13.57
2022-09-15T02:41:10.887Z,13.55
2022-09-15T02:42:10.904Z,13.54
2022-09-15T02:43:10.866Z,13.53
2022-09-15T02:44:10.855Z,13.51
2022-09-15T02:45:10.824Z,13.48
2022-09-15T02:46:10.854Z,13.47
2022-09-15T02:47:10.831Z,13.44
2022-09-15T02:48:10.864Z,13.43
2022-09-15T02:49:10.801Z,13.43
2022-09-15T02:50:10.821Z,13.41
2022-09-15T02:51:11.708Z,13.39
2022-09-15T02:52:10.746Z,13.39
2022-09-15T02:53:10.748Z,13.36
2022-09-15T02:54:10.744Z,13.32
2022-09-15T02:55:10.725Z,13.35
2022-09-15T02:56:10.702Z,13.36
2022-09-15T02:57:10.725Z,13.38
2022-09-15T02:58:10.700Z,13.35
2022-09-15T02:59:10.662Z,13.31
2022-09-15T03:00:10.634Z,13.27
2022-09-15T03:01:10.686Z,13.28
2022-09-15T03:02:10.697Z,13.25
2022-09-15T03:03:10.664Z,13.24
2022-09-15T03:04:10.583Z,13.22
2022-09-15T03:05:10.605Z,13.17
2022-09-15T03:06:10.562Z,13.17
2022-09-15T03:07:10.541Z,13.17
2022-09-15T03:08:10.553Z,13.14
2022-09-15T03:09:10.531Z,13.16
2022-09-15T03:10:10.503Z,13.16
2022-09-15T03:11:10.569Z,13.14
2022-09-15T03:12:10.501Z,13.13
2022-09-15T03:13:10.492Z,13.13
2022-09-15T03:14:10.466Z,13.12
2022-09-15T03:15:10.438Z,13.12
2022-09-15T03:16:10.527Z,13.09
2022-09-15T03:17:10.418Z,13.09
2022-09-15T03:18:10.407Z,13.09
2022-09-15T03:19:10.408Z,13.06
2022-09-15T03:20:10.376Z,13.06
2022-09-15T03:21:17.427Z,13.06
2022-09-15T03:22:10.346Z,13.04
2022-09-15T03:23:10.346Z,13.04
2022-09-15T03:24:10.414Z,13.04
2022-09-15T03:25:10.363Z,13.03
2022-09-15T03:26:10.346Z,12.99
2022-09-15T03:27:10.362Z,13.03
2022-09-15T03:28:10.301Z,13.01
2022-09-15T03:29:10.298Z,13.01
2022-09-15T03:30:10.249Z,12.98
2022-09-15T03:31:10.318Z,12.98
2022-09-15T03:32:10.253Z,12.98
2022-09-15T03:33:10.234Z,12.99
2022-09-15T03:34:10.203Z,12.98
2022-09-15T03:35:10.182Z,12.96
2022-09-15T03:36:10.173Z,12.95
2022-09-15T03:37:10.164Z,12.95
2022-09-15T03:38:10.167Z,12.95
2022-09-15T03:39:10.135Z,12.91
2022-09-15T03:40:10.194Z,12.91
2022-09-15T03:41:10.104Z,12.88
2022-09-15T03:42:10.087Z,12.87
2022-09-15T03:43:10.113Z,12.88
2022-09-15T03:44:10.063Z,12.87
2022-09-15T03:45:10.071Z,12.88
2022-09-15T03:46:10.098Z,12.87
2022-09-15T03:47:10.040Z,12.87
2022-09-15T03:48:10.023Z,12.84
2022-09-15T03:49:10.011Z,12.85
2022-09-15T03:50:09.992Z,12.85
2022-09-15T03:51:10.001Z,12.85
2022-09-15T03:52:09.973Z,12.84
2022-09-15T03:53:09.975Z,12.87
2022-09-15T03:54:09.934Z,12.85
2022-09-15T03:55:09.928Z,12.84
2022-09-15T03:56:09.938Z,12.81
2022-09-15T03:57:09.921Z,12.80
2022-09-15T03:58:09.903Z,12.80
2022-09-15T03:59:09.896Z,12.79
2022-09-15T04:00:09.876Z,12.79
2022-09-15T04:01:09.955Z,12.76
2022-09-15T04:02:09.869Z,12.74
2022-09-15T04:03:10.881Z,12.76
2022-09-15T04:04:09.858Z,12.74
2022-09-15T04:05:09.814Z,12.74
2022-09-15T04:06:09.803Z,12.73
2022-09-15T04:07:09.819Z,12.71
2022-09-15T04:08:09.791Z,12.73
2022-09-15T04:09:09.751Z,12.70
2022-09-15T04:10:09.752Z,12.71
2022-09-15T04:11:09.748Z,12.69
2022-09-15T04:12:09.719Z,12.71
2022-09-15T04:13:09.699Z,12.70
2022-09-15T04:14:09.718Z,12.67
2022-09-15T04:15:09.670Z,12.69
2022-09-15T04:16:09.678Z,12.70
2022-09-15T04:17:09.650Z,12.70
2022-09-15T04:18:09.648Z,12.70
2022-09-15T04:19:09.622Z,12.73
2022-09-15T04:20:09.606Z,12.70
2022-09-15T04:21:09.592Z,12.70
2022-09-15T04:22:10.831Z,12.69
2022-09-15T04:23:09.631Z,12.69
2022-09-15T04:24:09.575Z,12.69
2022-09-15T04:25:09.545Z,12.67
2022-09-15T04:26:09.528Z,12.67
2022-09-15T04:27:09.521Z,12.70
2022-09-15T04:28:09.504Z,12.70
2022-09-15T04:29:09.485Z,12.67
2022-09-15T04:30:09.544Z,12.67
2022-09-15T04:31:09.659Z,12.67
2022-09-15T04:32:09.446Z,12.67
2022-09-15T04:33:09.449Z,12.67
2022-09-15T04:34:09.416Z,12.66
2022-09-15T04:35:09.417Z,12.66
2022-09-15T04:36:09.397Z,12.66
2022-09-15T04:37:09.421Z,12.69
2022-09-15T04:38:09.375Z,12.69
2022-09-15T04:39:09.368Z,12.66
2022-09-15T04:40:09.400Z,12.67
2022-09-15T04:41:09.343Z,12.67
2022-09-15T04:42:09.344Z,12.67
2022-09-15T04:43:09.358Z,12.67
2022-09-15T04:44:09.305Z,12.67
2022-09-15T04:45:09.711Z,12.67
2022-09-15T04:46:09.322Z,12.66
2022-09-15T04:47:09.258Z,12.67
2022-09-15T04:48:09.246Z,12.67
2022-09-15T04:49:09.227Z,12.66
2022-09-15T04:50:09.223Z,12.66
2022-09-15T04:51:09.209Z,12.66
2022-09-15T04:52:09.924Z,12.63
2022-09-15T04:53:09.190Z,12.63
2022-09-15T04:54:09.208Z,12.61
2022-09-15T04:55:09.165Z,12.62
2022-09-15T04:56:09.131Z,12.61
2022-09-15T04:57:09.228Z,12.62
2022-09-15T04:58:09.173Z,12.61
2022-09-15T04:59:09.103Z,12.59
2022-09-15T05:00:09.113Z,12.59
2022-09-15T05:01:09.129Z,12.59
2022-09-15T05:02:09.121Z,12.59
2022-09-15T05:03:09.128Z,12.61
2022-09-15T05:04:09.077Z,12.71
2022-09-15T05:05:09.018Z,12.79
2022-09-15T05:06:09.072Z,12.79
2022-09-15T05:07:08.990Z,12.81
2022-09-15T05:08:08.995Z,12.89
2022-09-15T05:09:10.497Z,13.01
2022-09-15T05:10:09.013Z,12.99
2022-09-15T05:11:08.945Z,12.96
2022-09-15T05:12:09.052Z,12.91
2022-09-15T05:13:08.962Z,12.87
2022-09-15T05:14:08.922Z,12.84
2022-09-15T05:15:08.912Z,12.80
2022-09-15T05:16:09.039Z,12.79
2022-09-15T05:17:08.878Z,12.79
2022-09-15T05:18:08.999Z,12.77
2022-09-15T05:19:08.859Z,12.76
2022-09-15T05:20:08.844Z,12.77
2022-09-15T05:21:08.870Z,12.77
2022-09-15T05:22:08.823Z,12.77
2022-09-15T05:23:08.790Z,12.77
2022-09-15T05:24:08.812Z,12.77
2022-09-15T05:25:08.810Z,12.80
2022-09-15T05:26:08.740Z,12.80
2022-09-15T05:27:08.747Z,12.80
2022-09-15T05:28:08.725Z,12.79
2022-09-15T05:29:08.714Z,12.80
2022-09-15T05:30:37.559Z,12.81
2022-09-15T05:31:09.761Z,12.87
2022-09-15T05:32:08.682Z,12.85
2022-09-15T05:33:08.706Z,12.87
2022-09-15T05:34:08.659Z,12.89
2022-09-15T05:35:08.744Z,12.89
2022-09-15T05:36:08.634Z,12.91
2022-09-15T05:37:08.676Z,12.91
2022-09-15T05:38:08.612Z,12.92
2022-09-15T05:39:08.577Z,12.94
2022-09-15T05:40:08.808Z,12.96
2022-09-15T05:41:08.562Z,12.98
2022-09-15T05:42:08.555Z,13.01
2022-09-15T05:43:08.539Z,13.03
2022-09-15T05:44:08.577Z,13.06
2022-09-15T05:45:08.559Z,13.09
2022-09-15T05:46:08.584Z,13.10
2022-09-15T05:47:09.573Z,13.13
2022-09-15T05:48:08.529Z,13.16
2022-09-15T05:49:08.546Z,13.16
2022-09-15T05:50:08.548Z,13.16
2022-09-15T05:51:08.497Z,13.21
2022-09-15T05:52:08.543Z,13.21
2022-09-15T05:53:08.575Z,13.22
2022-09-15T05:54:08.433Z,13.24
2022-09-15T05:55:08.403Z,13.25
2022-09-15T05:56:08.366Z,13.28
2022-09-15T05:57:08.357Z,13.31
2022-09-15T05:58:08.556Z,13.29
2022-09-15T05:59:08.341Z,13.31
2022-09-15T06:00:08.387Z,13.31
2022-09-15T06:01:08.419Z,13.35
2022-09-15T06:02:08.436Z,13.43
2022-09-15T06:03:08.340Z,13.44
2022-09-15T06:04:08.580Z,13.48
2022-09-15T06:05:08.267Z,13.48
2022-09-15T06:06:08.340Z,13.51
2022-09-15T06:07:08.239Z,13.54
2022-09-15T06:08:08.233Z,13.57
2022-09-15T06:09:08.282Z,13.61
2022-09-15T06:10:08.196Z,13.62
2022-09-15T06:11:09.882Z,13.71
2022-09-15T06:12:08.189Z,13.72
2022-09-15T06:13:08.200Z,13.79
2022-09-15T06:14:08.163Z,13.84
2022-09-15T06:15:08.147Z,13.91
2022-09-15T06:16:08.270Z,13.94
2022-09-15T06:17:08.194Z,13.98
2022-09-15T06:18:08.086Z,14.02
2022-09-15T06:19:08.078Z,14.06
2022-09-15T06:20:08.074Z,14.11
2022-09-15T06:21:08.307Z,14.19
2022-09-15T06:22:08.069Z,14.24
2022-09-15T06:23:08.056Z,14.36
2022-09-15T06:24:08.020Z,14.35
2022-09-15T06:25:07.990Z,14.36
2022-09-15T06:26:07.983Z,14.35
2022-09-15T06:27:07.989Z,14.36
2022-09-15T06:28:08.219Z,14.41
2022-09-15T06:29:07.952Z,14.44
2022-09-15T06:30:08.017Z,14.46
2022-09-15T06:31:09.034Z,14.46
2022-09-15T06:32:08.034Z,14.53
2022-09-15T06:33:07.917Z,14.59
2022-09-15T06:34:07.947Z,14.67
2022-09-15T06:35:08.924Z,14.72
2022-09-15T06:36:09.722Z,14.72
2022-09-15T06:37:07.837Z,14.71
2022-09-15T06:38:07.837Z,14.71
2022-09-15T06:39:07.828Z,14.74
2022-09-15T06:40:07.891Z,14.72
2022-09-15T06:41:07.856Z,14.78
2022-09-15T06:42:09.495Z,14.75
2022-09-15T06:43:07.785Z,14.74
2022-09-15T06:44:08.877Z,14.64
2022-09-15T06:45:07.743Z,14.66
2022-09-15T06:46:07.817Z,14.69
2022-09-15T06:47:07.711Z,14.78
2022-09-15T06:48:23.990Z,14.85
2022-09-15T06:49:08.721Z,14.90
2022-09-15T06:50:07.724Z,14.91
2022-09-15T06:51:07.657Z,14.95
2022-09-15T06:52:07.642Z,14.95
2022-09-15T06:53:07.642Z,15.00
2022-09-15T06:54:07.623Z,15.03
2022-09-15T06:55:07.781Z,15.04
2022-09-15T06:56:07.599Z,15.04
2022-09-15T06:57:07.610Z,15.05
2022-09-15T06:58:07.664Z,15.07
2022-09-15T06:59:07.622Z,15.15
2022-09-15T07:00:07.575Z,15.20
2022-09-15T07:01:07.868Z,15.20
2022-09-15T07:02:07.594Z,15.18
2022-09-15T07:03:07.733Z,15.16
2022-09-15T07:04:07.511Z,15.16
2022-09-15T07:05:07.498Z,15.18
2022-09-15T07:06:07.490Z,15.18
2022-09-15T07:07:07.594Z,15.15
2022-09-15T07:08:07.437Z,15.11
2022-09-15T07:09:07.423Z,15.12
2022-09-15T07:10:07.463Z,15.09
2022-09-15T07:11:07.405Z,15.04
2022-09-15T07:12:07.391Z,15.03
2022-09-15T07:13:07.495Z,15.03
2022-09-15T07:14:07.458Z,15.01
2022-09-15T07:15:08.126Z,15.04
2022-09-15T07:16:07.377Z,15.05
2022-09-15T07:17:07.322Z,15.13
2022-09-15T07:18:07.337Z,15.16
2022-09-15T07:19:07.323Z,15.20
2022-09-15T07:20:07.305Z,15.25
2022-09-15T07:21:07.335Z,15.16
2022-09-15T07:22:07.269Z,15.13
2022-09-15T07:23:07.288Z,15.12
2022-09-15T07:24:07.800Z,15.05
2022-09-15T07:25:07.209Z,15.03
2022-09-15T07:26:07.401Z,15.01
2022-09-15T07:27:07.230Z,15.01
2022-09-15T07:28:07.211Z,15.01
2022-09-15T07:29:07.461Z,15.05
2022-09-15T07:30:07.231Z,15.12
2022-09-15T07:31:07.918Z,15.15
2022-09-15T07:32:08.309Z,15.22
2022-09-15T07:33:07.141Z,15.25
2022-09-15T07:34:07.194Z,15.23
2022-09-15T07:35:07.140Z,15.19
2022-09-15T07:36:07.146Z,15.16
2022-09-15T07:37:07.088Z,15.16
2022-09-15T07:38:07.092Z,15.05
2022-09-15T07:39:07.113Z,15.01
2022-09-15T07:40:07.136Z,15.04
2022-09-15T07:41:07.033Z,15.04
2022-09-15T07:42:07.017Z,15.00
2022-09-15T07:43:07.026Z,15.01
2022-09-15T07:44:07.049Z,15.07
2022-09-15T07:45:07.375Z,15.07
2022-09-15T07:46:07.023Z,15.11
2022-09-15T07:47:06.950Z,15.16
2022-09-15T07:48:06.920Z,15.23
2022-09-15T07:49:06.970Z,15.30
2022-09-15T07:50:06.919Z,15.38
2022-09-15T07:51:06.902Z,15.46
2022-09-15T07:52:06.896Z,15.48
2022-09-15T07:53:06.883Z,15.40
2022-09-15T07:54:06.969Z,15.37
2022-09-15T07:55:06.850Z,15.28
2022-09-15T07:56:06.842Z,15.27
2022-09-15T07:57:06.801Z,15.22
2022-09-15T07:58:06.789Z,15.23
2022-09-15T07:59:06.783Z,15.33
2022-09-15T08:00:06.855Z,15.37
2022-09-15T08:01:06.802Z,15.51
2022-09-15T08:02:06.952Z,15.55
2022-09-15T08:03:06.763Z,15.52
2022-09-15T08:04:06.759Z,15.44
2022-09-15T08:05:06.747Z,15.31
2022-09-15T08:06:06.690Z,15.33
2022-09-15T08:07:06.684Z,15.38
2022-09-15T08:08:06.692Z,15.51
2022-09-15T08:09:06.669Z,15.55
2022-09-15T08:10:06.661Z,15.60
2022-09-15T08:11:06.626Z,15.58
2022-09-15T08:12:06.636Z,15.58
2022-09-15T08:13:07.099Z,15.62
2022-09-15T08:14:06.609Z,15.71
2022-09-15T08:15:06.579Z,15.74
2022-09-15T08:16:06.677Z,15.77
2022-09-15T08:17:11.269Z,15.80
2022-09-15T08:18:07.625Z,15.80
2022-09-15T08:19:06.590Z,15.78
2022-09-15T08:20:07.000Z,15.80
2022-09-15T08:21:06.538Z,15.81
2022-09-15T08:22:06.509Z,15.80
2022-09-15T08:23:06.465Z,15.85
2022-09-15T08:24:06.473Z,15.92
2022-09-15T08:25:06.455Z,16.01
2022-09-15T08:26:10.630Z,16.03
2022-09-15T08:27:08.552Z,16.04
2022-09-15T08:28:06.431Z,16.01
2022-09-15T08:29:06.408Z,16.04
2022-09-15T08:30:06.441Z,16.04
2022-09-15T08:31:06.470Z,16.03
2022-09-15T08:32:06.387Z,16.07
2022-09-15T08:33:06.361Z,16.07
2022-09-15T08:34:07.464Z,16.04
2022-09-15T08:35:06.347Z,16.06
2022-09-15T08:36:06.313Z,16.10
2022-09-15T08:37:06.453Z,16.14
2022-09-15T08:38:06.345Z,16.17
2022-09-15T08:39:06.273Z,16.11
2022-09-15T08:40:06.341Z,16.13
2022-09-15T08:41:06.229Z,16.14
2022-09-15T08:42:06.230Z,16.04
2022-09-15T08:43:06.222Z,15.98
2022-09-15T08:44:06.262Z,15.95
2022-09-15T08:45:06.408Z,16.07
2022-09-15T08:46:06.214Z,16.13
2022-09-15T08:47:06.156Z,16.23
2022-09-15T08:48:06.204Z,16.29
2022-09-15T08:49:06.135Z,16.36
2022-09-15T08:50:06.135Z,16.37
2022-09-15T08:51:06.132Z,16.34
2022-09-15T08:52:06.096Z,16.30
2022-09-15T08:53:06.205Z,16.37
2022-09-15T08:54:06.122Z,16.36
2022-09-15T08:55:06.101Z,16.30
2022-09-15T08:56:09.769Z,16.34
2022-09-15T08:57:06.100Z,16.37
2022-09-15T08:58:06.098Z,16.37
2022-09-15T08:59:06.074Z,16.34
2022-09-15T09:00:06.020Z,16.37
2022-09-15T09:01:06.022Z,16.33
2022-09-15T09:02:06.155Z,16.40
2022-09-15T09:03:06.026Z,16.45
2022-09-15T09:04:06.295Z,16.45
2022-09-15T09:05:05.955Z,16.48
2022-09-15T09:06:05.985Z,16.51
2022-09-15T09:07:05.966Z,16.59
2022-09-15T09:08:05.906Z,16.63
2022-09-15T09:09:06.475Z,16.69
2022-09-15T09:10:06.020Z,16.65
2022-09-15T09:11:05.852Z,16.59
2022-09-15T09:12:05.956Z,16.52
2022-09-15T09:13:06.618Z,16.51
2022-09-15T09:14:05.845Z,16.45
2022-09-15T09:15:05.795Z,16.36
2022-09-15T09:16:05.910Z,16.33
2022-09-15T09:17:05.788Z,16.33
2022-09-15T09:18:05.786Z,16.37
2022-09-15T09:19:05.812Z,16.36
2022-09-15T09:20:05.755Z,16.42
2022-09-15T09:22:06.605Z,16.47
2022-09-15T09:23:04.886Z,16.52
2022-09-15T09:24:04.873Z,16.59
2022-09-15T09:25:21.136Z,16.57
2022-09-15T09:26:10.369Z,16.60
2022-09-15T09:27:04.764Z,16.65
2022-09-15T09:28:04.787Z,16.66
2022-09-15T09:29:04.741Z,16.63
2022-09-15T09:30:04.735Z,16.60
2022-09-15T09:31:04.804Z,16.63
2022-09-15T09:32:04.735Z,16.66
2022-09-15T09:33:04.703Z,16.69
2022-09-15T09:34:04.693Z,16.70
2022-09-15T09:35:04.666Z,16.78
2022-09-15T09:36:04.664Z,16.85
2022-09-15T09:37:04.651Z,16.91
2022-09-15T09:38:04.645Z,16.95
2022-09-15T09:39:04.643Z,16.92
2022-09-15T09:40:04.684Z,16.91
2022-09-15T09:41:04.598Z,16.85
2022-09-15T09:42:04.590Z,16.90
2022-09-15T09:43:04.594Z,16.82
2022-09-15T09:44:04.552Z,16.87
2022-09-15T09:45:04.534Z,16.87
2022-09-15T09:46:05.252Z,16.88
2022-09-15T09:47:04.524Z,16.98
2022-09-15T09:48:04.523Z,17.05
2022-09-15T09:49:04.483Z,17.07
2022-09-15T09:50:04.497Z,17.09
2022-09-15T09:51:04.463Z,17.07
2022-09-15T09:52:04.464Z,17.07
2022-09-15T09:53:04.454Z,17.06
2022-09-15T09:54:04.442Z,17.10
2022-09-15T09:55:04.413Z,17.14
2022-09-15T09:56:04.425Z,17.12
2022-09-15T09:57:04.407Z,17.12
2022-09-15T09:58:04.398Z,17.17
2022-09-15T09:59:04.359Z,17.15
2022-09-15T10:00:04.352Z,17.07
2022-09-15T10:01:04.381Z,17.10
2022-09-15T10:02:04.343Z,17.12
2022-09-15T10:03:04.323Z,17.15
2022-09-15T10:04:04.325Z,17.17
2022-09-15T10:05:04.366Z,17.25
2022-09-15T10:06:04.263Z,17.40
2022-09-15T10:07:04.270Z,17.54
2022-09-15T10:08:04.252Z,17.70
2022-09-15T10:09:04.243Z,17.87
2022-09-15T10:10:04.250Z,18.01
2022-09-15T10:11:04.209Z,18.07
2022-09-15T10:12:04.212Z,18.09
2022-09-15T10:13:04.200Z,18.14
2022-09-15T10:14:04.187Z,18.23
2022-09-15T10:15:04.205Z,18.34
2022-09-15T10:16:04.150Z,18.41
2022-09-15T10:17:04.229Z,18.44
2022-09-15T10:18:04.131Z,18.28
2022-09-15T10:19:04.090Z,18.09
2022-09-15T10:20:04.103Z,17.96
2022-09-15T10:21:04.082Z,17.98
2022-09-15T10:22:04.089Z,18.02
2022-09-15T10:23:04.051Z,18.09
2022-09-15T10:24:04.040Z,18.09
2022-09-15T10:25:04.030Z,18.13
2022-09-15T10:26:04.020Z,18.26
2022-09-15T10:27:03.999Z,18.38
2022-09-15T10:28:03.989Z,18.36
2022-09-15T10:29:04.664Z,18.19
2022-09-15T10:30:03.968Z,18.20
2022-09-15T10:31:03.947Z,18.29
2022-09-15T10:32:04.036Z,18.29
2022-09-15T10:33:03.920Z,18.21
2022-09-15T10:34:03.923Z,18.14
2022-09-15T10:35:03.889Z,18.14
2022-09-15T10:36:03.892Z,18.19
2022-09-15T10:37:03.868Z,18.25
2022-09-15T10:38:03.883Z,18.31
2022-09-15T10:39:03.849Z,18.38
2022-09-15T10:40:04.093Z,18.49
2022-09-15T10:41:03.859Z,18.59
2022-09-15T10:42:03.838Z,18.68
2022-09-15T10:43:04.046Z,18.71
2022-09-15T10:44:04.564Z,18.64
2022-09-15T10:45:03.967Z,18.64
2022-09-15T10:46:03.861Z,18.65
2022-09-15T10:47:03.831Z,18.56
2022-09-15T10:48:03.820Z,18.46
2022-09-15T10:49:03.973Z,18.50
2022-09-15T10:50:03.721Z,18.64
2022-09-15T10:51:03.720Z,18.72
2022-09-15T10:52:03.715Z,18.75
2022-09-15T10:53:03.747Z,18.66
2022-09-15T10:54:03.814Z,18.54
2022-09-15T10:55:03.717Z,18.38
2022-09-15T10:56:03.724Z,18.25
2022-09-15T10:57:03.783Z,18.35
2022-09-15T10:58:03.789Z,18.26
2022-09-15T10:59:03.651Z,18.19
2022-09-15T11:00:03.727Z,18.23
2022-09-15T11:01:03.755Z,18.04
2022-09-15T11:02:03.611Z,17.96
2022-09-15T11:03:03.559Z,17.96
2022-09-15T11:04:03.521Z,17.95
2022-09-15T11:05:03.512Z,17.89
2022-09-15T11:06:03.491Z,17.83
2022-09-15T11:07:03.488Z,17.87
2022-09-15T11:08:03.477Z,17.86
2022-09-15T11:09:03.471Z,17.84
2022-09-15T11:10:03.442Z,17.83
2022-09-15T11:11:03.426Z,17.81
2022-09-15T11:12:03.434Z,17.80
2022-09-15T11:13:03.405Z,17.81
2022-09-15T11:14:03.414Z,17.86
2022-09-15T11:15:03.401Z,17.87
2022-09-15T11:16:03.431Z,17.83
2022-09-15T11:17:03.355Z,17.81
2022-09-15T11:18:03.338Z,17.76
2022-09-15T11:19:03.378Z,17.66
2022-09-15T11:20:03.343Z,17.63
2022-09-15T11:21:03.520Z,17.66
2022-09-15T11:22:03.305Z,17.70
2022-09-15T11:23:04.322Z,17.74
2022-09-15T11:24:03.272Z,17.80
2022-09-15T11:25:03.253Z,17.83
2022-09-15T11:26:03.338Z,17.86
2022-09-15T11:27:03.250Z,17.89
2022-09-15T11:28:03.231Z,17.96
2022-09-15T11:29:03.192Z,17.99
2022-09-15T11:30:03.285Z,18.11
2022-09-15T11:31:03.250Z,18.13
2022-09-15T11:33:03.175Z,18.05
2022-09-15T11:34:03.149Z,18.04
2022-09-15T11:35:03.132Z,17.99
2022-09-15T11:36:03.106Z,17.92
2022-09-15T11:37:03.138Z,17.91
2022-09-15T11:38:03.086Z,17.98
2022-09-15T11:39:03.068Z,17.95
2022-09-15T11:40:03.128Z,17.91
2022-09-15T11:41:03.047Z,17.81
2022-09-15T11:42:03.022Z,17.76
2022-09-15T11:43:04.215Z,17.71
2022-09-15T11:44:03.014Z,17.68
2022-09-15T11:45:03.029Z,17.66
2022-09-15T11:46:02.989Z,17.65
2022-09-15T11:47:03.024Z,17.63
2022-09-15T11:48:02.975Z,17.68
2022-09-15T11:49:02.945Z,17.73
2022-09-15T11:50:02.930Z,17.76
2022-09-15T11:51:02.937Z,17.81
2022-09-15T11:52:03.034Z,17.83
2022-09-15T11:53:02.884Z,17.94
2022-09-15T11:54:02.895Z,17.92
2022-09-15T11:55:02.861Z,17.87
2022-09-15T11:56:02.885Z,17.92
2022-09-15T11:57:02.883Z,17.96
2022-09-15T11:58:02.855Z,17.98
2022-09-15T11:59:02.834Z,18.01
2022-09-15T12:00:02.814Z,18.01
2022-09-15T12:01:02.766Z,18.09
2022-09-15T12:02:02.803Z,18.07
2022-09-15T12:03:02.851Z,18.05
2022-09-15T12:04:02.745Z,18.04
2022-09-15T12:05:02.735Z,17.99
2022-09-15T12:06:03.678Z,18.02
2022-09-15T12:07:02.721Z,18.02
2022-09-15T12:08:02.716Z,17.99
2022-09-15T12:09:02.723Z,18.02
2022-09-15T12:10:02.738Z,17.99
2022-09-15T12:11:02.682Z,17.95
2022-09-15T12:12:02.632Z,17.92
2022-09-15T12:13:02.642Z,17.87
2022-09-15T12:14:02.618Z,17.83
2022-09-15T12:15:02.618Z,17.77
2022-09-15T12:16:02.641Z,17.66
2022-09-15T12:17:02.814Z,17.65
2022-09-15T12:18:10.829Z,17.62
2022-09-15T12:19:03.543Z,17.58
2022-09-15T12:20:02.618Z,17.54
2022-09-15T12:21:02.524Z,17.45
2022-09-15T12:22:02.519Z,17.39
2022-09-15T12:23:02.573Z,17.38
2022-09-15T12:24:02.509Z,17.35
2022-09-15T12:25:02.529Z,17.35
2022-09-15T12:26:02.510Z,17.30
2022-09-15T12:27:03.093Z,17.30
2022-09-15T12:28:02.443Z,17.24
2022-09-15T12:29:02.579Z,17.18
2022-09-15T12:30:02.508Z,17.20
2022-09-15T12:31:02.404Z,17.18
2022-09-15T12:32:02.455Z,17.18
2022-09-15T12:33:02.414Z,17.20
2022-09-15T12:34:02.353Z,17.20
2022-09-15T12:35:02.341Z,17.20
2022-09-15T12:36:02.346Z,17.21
2022-09-15T12:37:02.307Z,17.24
2022-09-15T12:38:02.299Z,17.28
2022-09-15T12:39:02.323Z,17.35
2022-09-15T12:40:02.354Z,17.46
2022-09-15T12:41:02.281Z,17.53
2022-09-15T12:42:02.260Z,17.66
2022-09-15T12:43:02.269Z,17.77
2022-09-15T12:44:02.232Z,17.86
2022-09-15T12:45:02.229Z,17.87
2022-09-15T12:46:02.304Z,17.87
2022-09-15T12:47:02.241Z,17.89
2022-09-15T12:48:02.172Z,17.83
2022-09-15T12:49:02.162Z,17.80
2022-09-15T12:50:02.174Z,17.77
2022-09-15T12:51:02.139Z,17.80
2022-09-15T12:52:02.128Z,17.84
2022-09-15T12:53:02.190Z,17.86
2022-09-15T12:54:02.088Z,17.86